Al Udeid Air Base

Airport
ICAO code: 
OTBH
IATA Code: 
IUD
Summary
ICAO Region: 
MID
Territory: 
Location: 
Al-Udeid, Ad Dawhah
Serving: 
Al-Udeid Air Base
Elevation: 
130 ft
Coordinates: 
Aerial View: 
25° 7' 0.822" N, 51° 18' 54.737" E
Metar
Observation
OTBH 050756Z AUTO 29008KT 9999 CLR 22/12 A3012 RMK AO2 SLP201 T02220124 $
Station
Al Udeid
Date/Time
2021-12-05 07:56:00
Wind direction
290°
Wind speed
08 kts
Lowest cloud amount
n/a
Temperature
22.2°C
Dew point
12.4°C
Humidity
53%
Weather condition
n/a

Al Udeid Air Base is a military base southwest of Doha, Qatar, also known as Abu Nakhlah Airport. It houses Qatari Air Force, U.S. Air Force, and Royal Air Force personnel and assets.

Climatology

Hot Desert Climate (Köppen climate classification BWh)

Runways

Designator Length Width Surface Rops
16/34 3750 45 ASP Yes/Yes
Airport map: 
Aerial View: 

SKYbrary Partners:

Safety knowledge contributed by: